sensor_id;sensor_type;location;lat;lon;timestamp;pressure;altitude;pressure_sealevel;temperature;humidity
64908;BME280;69061;52.236;5.188;2023-04-09T00:02:11;102606.75;;;11.34;81.68
64908;BME280;69061;52.236;5.188;2023-04-09T00:04:39;102604.06;;;11.34;81.27
64908;BME280;69061;52.236;5.188;2023-04-09T00:07:06;102606.75;;;11.34;81.98
64908;BME280;69061;52.236;5.188;2023-04-09T00:09:33;102606.75;;;11.34;81.44
64908;BME280;69061;52.236;5.188;2023-04-09T00:11:59;102606.88;;;11.37;81.77
64908;BME280;69061;52.236;5.188;2023-04-09T00:14:26;102607.78;;;11.41;82.24
64908;BME280;69061;52.236;5.188;2023-04-09T00:16:53;102608.88;;;11.40;81.60
64908;BME280;69061;52.236;5.188;2023-04-09T00:19:19;102615.97;;;11.36;81.40
64908;BME280;69061;52.236;5.188;2023-04-09T00:21:47;102607.97;;;11.36;81.04
64908;BME280;69061;52.236;5.188;2023-04-09T00:24:14;102608.44;;;11.38;81.11
64908;BME280;69061;52.236;5.188;2023-04-09T00:26:40;102603.44;;;11.37;80.67
64908;BME280;69061;52.236;5.188;2023-04-09T00:29:07;102599.66;;;11.38;81.19
64908;BME280;69061;52.236;5.188;2023-04-09T00:31:34;102597.81;;;11.38;81.17
64908;BME280;69061;52.236;5.188;2023-04-09T00:34:00;102590.47;;;11.35;80.67
64908;BME280;69061;52.236;5.188;2023-04-09T00:36:27;102587.00;;;11.35;81.21
64908;BME280;69061;52.236;5.188;2023-04-09T00:38:55;102593.75;;;11.32;81.97
64908;BME280;69061;52.236;5.188;2023-04-09T00:41:22;102580.44;;;11.32;82.45
64908;BME280;69061;52.236;5.188;2023-04-09T00:43:49;102589.47;;;11.40;82.45
64908;BME280;69061;52.236;5.188;2023-04-09T00:46:16;102589.63;;;11.43;81.94
64908;BME280;69061;52.236;5.188;2023-04-09T00:48:43;102593.06;;;11.44;81.74
64908;BME280;69061;52.236;5.188;2023-04-09T00:51:09;102583.50;;;11.43;81.55
64908;BME280;69061;52.236;5.188;2023-04-09T00:53:36;102584.59;;;11.42;81.56
64908;BME280;69061;52.236;5.188;2023-04-09T00:56:05;102588.81;;;11.43;82.34
64908;BME280;69061;52.236;5.188;2023-04-09T00:58:32;102576.75;;;11.45;82.23
64908;BME280;69061;52.236;5.188;2023-04-09T01:00:58;102579.75;;;11.44;82.99
64908;BME280;69061;52.236;5.188;2023-04-09T01:03:25;102578.19;;;11.43;82.76
64908;BME280;69061;52.236;5.188;2023-04-09T01:05:59;102577.06;;;11.44;83.13
64908;BME280;69061;52.236;5.188;2023-04-09T01:08:37;102575.00;;;11.50;83.55
64908;BME280;69061;52.236;5.188;2023-04-09T01:11:13;102569.66;;;11.50;82.52
64908;BME280;69061;52.236;5.188;2023-04-09T01:13:54;102574.56;;;11.48;82.90
64908;BME280;69061;52.236;5.188;2023-04-09T01:16:24;102567.66;;;11.46;81.67
64908;BME280;69061;52.236;5.188;2023-04-09T01:18:54;102568.09;;;11.49;81.83
64908;BME280;69061;52.236;5.188;2023-04-09T01:21:25;102571.91;;;11.48;80.88
64908;BME280;69061;52.236;5.188;2023-04-09T01:23:59;102567.81;;;11.50;81.32
64908;BME280;69061;52.236;5.188;2023-04-09T01:26:38;102558.44;;;11.44;81.46
64908;BME280;69061;52.236;5.188;2023-04-09T01:29:09;102563.09;;;11.47;80.17
64908;BME280;69061;52.236;5.188;2023-04-09T01:31:37;102562.00;;;11.48;80.53
64908;BME280;69061;52.236;5.188;2023-04-09T01:34:05;102569.56;;;11.46;79.91
64908;BME280;69061;52.236;5.188;2023-04-09T01:36:33;102564.25;;;11.46;80.43
64908;BME280;69061;52.236;5.188;2023-04-09T01:39:01;102568.00;;;11.45;80.65
64908;BME280;69061;52.236;5.188;2023-04-09T01:41:30;102564.25;;;11.46;81.40
64908;BME280;69061;52.236;5.188;2023-04-09T01:43:59;102555.78;;;11.44;80.37
64908;BME280;69061;52.236;5.188;2023-04-09T01:46:28;102564.75;;;11.39;79.77
64908;BME280;69061;52.236;5.188;2023-04-09T01:48:56;102562.88;;;11.40;79.77
64908;BME280;69061;52.236;5.188;2023-04-09T01:51:23;102562.16;;;11.31;80.59
64908;BME280;69061;52.236;5.188;2023-04-09T01:53:51;102564.81;;;11.31;80.04
64908;BME280;69061;52.236;5.188;2023-04-09T01:56:17;102560.56;;;11.29;79.79
64908;BME280;69061;52.236;5.188;2023-04-09T01:58:45;102562.00;;;11.27;79.22
64908;BME280;69061;52.236;5.188;2023-04-09T02:01:15;102557.34;;;11.24;79.51
64908;BME280;69061;52.236;5.188;2023-04-09T02:03:51;102564.16;;;11.12;80.63
64908;BME280;69061;52.236;5.188;2023-04-09T02:06:24;102562.25;;;11.13;80.28
64908;BME280;69061;52.236;5.188;2023-04-09T02:08:57;102566.22;;;11.07;81.40
64908;BME280;69061;52.236;5.188;2023-04-09T02:11:25;102545.38;;;11.09;81.28
64908;BME280;69061;52.236;5.188;2023-04-09T02:13:54;102555.38;;;11.12;81.88
64908;BME280;69061;52.236;5.188;2023-04-09T02:16:22;102551.75;;;11.17;81.63
64908;BME280;69061;52.236;5.188;2023-04-09T02:18:53;102556.56;;;11.23;82.21
64908;BME280;69061;52.236;5.188;2023-04-09T02:21:21;102552.16;;;11.27;80.86
64908;BME280;69061;52.236;5.188;2023-04-09T02:23:47;102544.50;;;11.26;80.07
64908;BME280;69061;52.236;5.188;2023-04-09T02:26:14;102555.25;;;11.29;79.82
64908;BME280;69061;52.236;5.188;2023-04-09T02:28:41;102551.50;;;11.31;82.63
64908;BME280;69061;52.236;5.188;2023-04-09T02:31:07;102551.97;;;11.33;81.54
64908;BME280;69061;52.236;5.188;2023-04-09T02:33:35;102547.09;;;11.35;80.22
64908;BME280;69061;52.236;5.188;2023-04-09T02:36:03;102549.16;;;11.29;79.86
64908;BME280;69061;52.236;5.188;2023-04-09T02:38:30;102547.75;;;11.32;81.17
64908;BME280;69061;52.236;5.188;2023-04-09T02:40:57;102548.19;;;11.34;81.52
64908;BME280;69061;52.236;5.188;2023-04-09T02:43:24;102539.91;;;11.35;81.28
64908;BME280;69061;52.236;5.188;2023-04-09T02:45:50;102539.91;;;11.35;81.40
64908;BME280;69061;52.236;5.188;2023-04-09T02:48:17;102533.34;;;11.33;81.13
64908;BME280;69061;52.236;5.188;2023-04-09T02:50:44;102528.19;;;11.27;80.31
64908;BME280;69061;52.236;5.188;2023-04-09T02:53:11;102539.94;;;11.26;80.27
64908;BME280;69061;52.236;5.188;2023-04-09T02:55:38;102533.53;;;11.27;80.68
64908;BME280;69061;52.236;5.188;2023-04-09T02:58:05;102529.97;;;11.23;80.32
64908;BME280;69061;52.236;5.188;2023-04-09T03:00:31;102529.28;;;11.26;80.36
64908;BME280;69061;52.236;5.188;2023-04-09T03:02:58;102516.66;;;11.23;80.20
64908;BME280;69061;52.236;5.188;2023-04-09T03:05:25;102522.56;;;11.29;80.83
64908;BME280;69061;52.236;5.188;2023-04-09T03:07:52;102533.44;;;11.36;80.70
64908;BME280;69061;52.236;5.188;2023-04-09T03:10:20;102528.69;;;11.42;81.12
64908;BME280;69061;52.236;5.188;2023-04-09T03:12:47;102531.34;;;11.42;81.31
64908;BME280;69061;52.236;5.188;2023-04-09T03:15:13;102517.59;;;11.40;80.83
64908;BME280;69061;52.236;5.188;2023-04-09T03:17:40;102519.16;;;11.41;80.03
64908;BME280;69061;52.236;5.188;2023-04-09T03:20:07;102516.19;;;11.42;79.40
64908;BME280;69061;52.236;5.188;2023-04-09T03:22:35;102528.69;;;11.42;79.12
64908;BME280;69061;52.236;5.188;2023-04-09T03:25:01;102522.16;;;11.39;79.55
64908;BME280;69061;52.236;5.188;2023-04-09T03:27:31;102511.81;;;11.38;80.21
64908;BME280;69061;52.236;5.188;2023-04-09T03:29:58;102512.28;;;11.40;80.71
64908;BME280;69061;52.236;5.188;2023-04-09T03:32:25;102516.50;;;11.41;81.21
64908;BME280;69061;52.236;5.188;2023-04-09T03:34:51;102514.63;;;11.41;80.29
64908;BME280;69061;52.236;5.188;2023-04-09T03:37:18;102518.84;;;11.42;80.70
64908;BME280;69061;52.236;5.188;2023-04-09T03:39:45;102514.75;;;11.45;80.59
64908;BME280;69061;52.236;5.188;2023-04-09T03:42:11;102507.84;;;11.44;79.97
64908;BME280;69061;52.236;5.188;2023-04-09T03:44:39;102515.06;;;11.43;79.42
64908;BME280;69061;52.236;5.188;2023-04-09T03:47:06;102505.19;;;11.44;80.06
64908;BME280;69061;52.236;5.188;2023-04-09T03:49:33;102505.66;;;11.46;80.30
64908;BME280;69061;52.236;5.188;2023-04-09T03:52:00;102506.28;;;11.43;79.63
64908;BME280;69061;52.236;5.188;2023-04-09T03:54:28;102510.06;;;11.42;79.18
64908;BME280;69061;52.236;5.188;2023-04-09T03:56:54;102505.06;;;11.40;79.23
64908;BME280;69061;52.236;5.188;2023-04-09T03:59:21;102502.41;;;11.40;79.73
64908;BME280;69061;52.236;5.188;2023-04-09T04:01:49;102494.75;;;11.39;80.14
64908;BME280;69061;52.236;5.188;2023-04-09T04:04:16;102496.75;;;11.42;80.36
64908;BME280;69061;52.236;5.188;2023-04-09T04:06:43;102494.88;;;11.42;79.55
64908;BME280;69061;52.236;5.188;2023-04-09T04:09:09;102485.78;;;11.43;79.87
64908;BME280;69061;52.236;5.188;2023-04-09T04:11:36;102491.56;;;11.45;80.08
64908;BME280;69061;52.236;5.188;2023-04-09T04:14:02;102490.13;;;11.48;80.43
64908;BME280;69061;52.236;5.188;2023-04-09T04:16:29;102493.44;;;11.45;80.43
64908;BME280;69061;52.236;5.188;2023-04-09T04:18:57;102490.31;;;11.43;80.04
64908;BME280;69061;52.236;5.188;2023-04-09T04:21:24;102492.03;;;11.48;80.06
64908;BME280;69061;52.236;5.188;2023-04-09T04:23:51;102489.09;;;11.40;79.52
64908;BME280;69061;52.236;5.188;2023-04-09T04:26:18;102483.34;;;11.38;80.09
64908;BME280;69061;52.236;5.188;2023-04-09T04:28:44;102479.56;;;11.39;80.99
64908;BME280;69061;52.236;5.188;2023-04-09T04:31:11;102474.25;;;11.39;81.14
64908;BME280;69061;52.236;5.188;2023-04-09T04:33:39;102479.81;;;11.25;79.90
64908;BME280;69061;52.236;5.188;2023-04-09T04:36:09;102481.47;;;11.18;79.60
64908;BME280;69061;52.236;5.188;2023-04-09T04:38:36;102480.69;;;11.17;79.60
64908;BME280;69061;52.236;5.188;2023-04-09T04:41:03;102476.91;;;11.18;80.00
64908;BME280;69061;52.236;5.188;2023-04-09T04:43:30;102478.34;;;11.16;79.71
64908;BME280;69061;52.236;5.188;2023-04-09T04:45:57;102486.13;;;11.21;80.42
64908;BME280;69061;52.236;5.188;2023-04-09T04:48:24;102491.66;;;11.16;79.26
64908;BME280;69061;52.236;5.188;2023-04-09T04:50:56;102496.84;;;10.91;78.44
64908;BME280;69061;52.236;5.188;2023-04-09T04:53:24;102482.13;;;10.93;79.44
64908;BME280;69061;52.236;5.188;2023-04-09T04:55:51;102493.53;;;10.94;79.46
64908;BME280;69061;52.236;5.188;2023-04-09T04:58:19;102482.31;;;10.88;79.98
64908;BME280;69061;52.236;5.188;2023-04-09T05:00:45;102491.63;;;10.94;80.16
64908;BME280;69061;52.236;5.188;2023-04-09T05:03:12;102483.47;;;11.00;80.30
64908;BME280;69061;52.236;5.188;2023-04-09T05:05:39;102487.50;;;11.06;79.98
64908;BME280;69061;52.236;5.188;2023-04-09T05:08:06;102491.06;;;11.10;79.62
64908;BME280;69061;52.236;5.188;2023-04-09T05:10:34;102489.50;;;11.09;79.87
64908;BME280;69061;52.236;5.188;2023-04-09T05:13:00;102493.06;;;11.13;79.80
64908;BME280;69061;52.236;5.188;2023-04-09T05:15:27;102485.56;;;11.15;81.02
64908;BME280;69061;52.236;5.188;2023-04-09T05:17:54;102482.44;;;11.13;81.32
64908;BME280;69061;52.236;5.188;2023-04-09T05:20:20;102486.19;;;11.12;79.63
64908;BME280;69061;52.236;5.188;2023-04-09T05:22:47;102492.94;;;11.09;79.63
64908;BME280;69061;52.236;5.188;2023-04-09T05:25:14;102496.25;;;11.06;80.14
64908;BME280;69061;52.236;5.188;2023-04-09T05:27:42;102487.94;;;11.08;82.02
64908;BME280;69061;52.236;5.188;2023-04-09T05:30:09;102500.72;;;11.15;82.26
64908;BME280;69061;52.236;5.188;2023-04-09T05:32:36;102496.78;;;11.21;81.52
64908;BME280;69061;52.236;5.188;2023-04-09T05:35:03;102497.44;;;11.18;80.11
64908;BME280;69061;52.236;5.188;2023-04-09T05:37:30;102501.91;;;11.05;80.39
64908;BME280;69061;52.236;5.188;2023-04-09T05:39:57;102507.41;;;11.00;80.13
64908;BME280;69061;52.236;5.188;2023-04-09T05:42:23;102513.84;;;10.99;80.13
64908;BME280;69061;52.236;5.188;2023-04-09T05:44:51;102497.09;;;10.98;79.09
64908;BME280;69061;52.236;5.188;2023-04-09T05:47:18;102501.50;;;10.94;80.02
64908;BME280;69061;52.236;5.188;2023-04-09T05:49:44;102493.03;;;11.01;79.50
64908;BME280;69061;52.236;5.188;2023-04-09T05:52:11;102504.75;;;11.00;79.23
64908;BME280;69061;52.236;5.188;2023-04-09T05:54:37;102503.66;;;11.01;79.50
64908;BME280;69061;52.236;5.188;2023-04-09T05:57:04;102503.16;;;11.07;80.50
64908;BME280;69061;52.236;5.188;2023-04-09T05:59:30;102503.72;;;11.13;80.15
64908;BME280;69061;52.236;5.188;2023-04-09T06:01:58;102495.94;;;11.08;79.22
64908;BME280;69061;52.236;5.188;2023-04-09T06:04:25;102505.63;;;11.12;78.95
64908;BME280;69061;52.236;5.188;2023-04-09T06:06:52;102505.16;;;11.10;78.92
64908;BME280;69061;52.236;5.188;2023-04-09T06:09:18;102498.16;;;11.06;78.38
64908;BME280;69061;52.236;5.188;2023-04-09T06:11:45;102510.03;;;11.08;78.66
64908;BME280;69061;52.236;5.188;2023-04-09T06:14:11;102510.47;;;11.10;78.96
64908;BME280;69061;52.236;5.188;2023-04-09T06:16:42;102512.50;;;11.14;77.99
64908;BME280;69061;52.236;5.188;2023-04-09T06:19:10;102514.50;;;10.95;77.69
64908;BME280;69061;52.236;5.188;2023-04-09T06:21:37;102515.88;;;11.02;77.70
64908;BME280;69061;52.236;5.188;2023-04-09T06:24:05;102522.13;;;10.97;77.77
64908;BME280;69061;52.236;5.188;2023-04-09T06:26:32;102516.06;;;10.97;79.49
64908;BME280;69061;52.236;5.188;2023-04-09T06:28:58;102526.03;;;11.00;79.50
64908;BME280;69061;52.236;5.188;2023-04-09T06:31:25;102522.53;;;11.08;79.18
64908;BME280;69061;52.236;5.188;2023-04-09T06:33:51;102525.47;;;11.15;78.96
64908;BME280;69061;52.236;5.188;2023-04-09T06:36:20;102530.34;;;11.13;78.43
64908;BME280;69061;52.236;5.188;2023-04-09T06:38:46;102526.72;;;11.18;77.57
64908;BME280;69061;52.236;5.188;2023-04-09T06:41:13;102526.72;;;11.18;77.39
64908;BME280;69061;52.236;5.188;2023-04-09T06:43:39;102523.25;;;11.17;77.24
64908;BME280;69061;52.236;5.188;2023-04-09T06:46:06;102523.91;;;11.14;77.04
64908;BME280;69061;52.236;5.188;2023-04-09T06:48:33;102527.00;;;11.16;76.95
64908;BME280;69061;52.236;5.188;2023-04-09T06:50:59;102527.16;;;11.20;78.01
64908;BME280;69061;52.236;5.188;2023-04-09T06:53:27;102524.50;;;11.20;77.68
64908;BME280;69061;52.236;5.188;2023-04-09T06:55:54;102529.69;;;11.16;76.60
64908;BME280;69061;52.236;5.188;2023-04-09T06:58:20;102523.59;;;11.16;76.44
64908;BME280;69061;52.236;5.188;2023-04-09T07:00:47;102529.69;;;11.16;76.77
64908;BME280;69061;52.236;5.188;2023-04-09T07:03:13;102532.03;;;11.18;77.38
64908;BME280;69061;52.236;5.188;2023-04-09T07:05:40;102523.72;;;11.19;77.64
64908;BME280;69061;52.236;5.188;2023-04-09T07:08:07;102533.84;;;11.26;77.34
64908;BME280;69061;52.236;5.188;2023-04-09T07:10:35;102534.28;;;11.28;77.06
64908;BME280;69061;52.236;5.188;2023-04-09T07:13:01;102529.44;;;11.30;79.02
64908;BME280;69061;52.236;5.188;2023-04-09T07:15:28;102534.25;;;11.37;78.55
64908;BME280;69061;52.236;5.188;2023-04-09T07:17:54;102533.00;;;11.34;77.54
64908;BME280;69061;52.236;5.188;2023-04-09T07:20:22;102535.34;;;11.36;77.23
64908;BME280;69061;52.236;5.188;2023-04-09T07:22:49;102534.34;;;11.40;77.18
64908;BME280;69061;52.236;5.188;2023-04-09T07:25:15;102537.63;;;11.46;76.68
64908;BME280;69061;52.236;5.188;2023-04-09T07:27:43;102539.41;;;11.54;76.49
64908;BME280;69061;52.236;5.188;2023-04-09T07:30:10;102530.97;;;11.52;76.69
64908;BME280;69061;52.236;5.188;2023-04-09T07:32:36;102536.09;;;11.57;77.65
64908;BME280;69061;52.236;5.188;2023-04-09T07:35:06;102524.91;;;11.64;76.97
64908;BME280;69061;52.236;5.188;2023-04-09T07:37:33;102533.41;;;11.78;76.50
64908;BME280;69061;52.236;5.188;2023-04-09T07:40:00;102533.63;;;11.86;74.83
64908;BME280;69061;52.236;5.188;2023-04-09T07:42:28;102534.41;;;11.86;75.70
64908;BME280;69061;52.236;5.188;2023-04-09T07:44:56;102539.53;;;11.91;75.26
64908;BME280;69061;52.236;5.188;2023-04-09T07:47:22;102539.34;;;11.96;75.42
64908;BME280;69061;52.236;5.188;2023-04-09T07:49:49;102532.47;;;12.08;75.12
64908;BME280;69061;52.236;5.188;2023-04-09T07:52:16;102530.59;;;12.08;74.02
64908;BME280;69061;52.236;5.188;2023-04-09T07:54:43;102536.50;;;12.14;73.84
64908;BME280;69061;52.236;5.188;2023-04-09T07:57:10;102534.72;;;12.18;73.76
64908;BME280;69061;52.236;5.188;2023-04-09T07:59:36;102535.63;;;12.22;73.21
64908;BME280;69061;52.236;5.188;2023-04-09T08:02:04;102529.41;;;12.30;73.34
64908;BME280;69061;52.236;5.188;2023-04-09T08:04:31;102519.63;;;12.35;72.18
64908;BME280;69061;52.236;5.188;2023-04-09T08:06:57;102522.63;;;12.33;71.49
64908;BME280;69061;52.236;5.188;2023-04-09T08:09:24;102528.41;;;12.35;72.71
64908;BME280;69061;52.236;5.188;2023-04-09T08:11:51;102526.19;;;12.37;72.41
64908;BME280;69061;52.236;5.188;2023-04-09T08:14:17;102535.28;;;12.36;72.65
64908;BME280;69061;52.236;5.188;2023-04-09T08:16:45;102522.28;;;12.35;72.80
64908;BME280;69061;52.236;5.188;2023-04-09T08:19:16;102532.84;;;12.31;70.98
64908;BME280;69061;52.236;5.188;2023-04-09T08:21:43;102525.72;;;12.35;70.51
64908;BME280;69061;52.236;5.188;2023-04-09T08:24:13;102528.50;;;12.39;71.71
64908;BME280;69061;52.236;5.188;2023-04-09T08:26:41;102526.53;;;12.48;71.13
64908;BME280;69061;52.236;5.188;2023-04-09T08:29:10;102533.63;;;12.56;72.81
64908;BME280;69061;52.236;5.188;2023-04-09T08:31:37;102528.75;;;12.71;72.63
64908;BME280;69061;52.236;5.188;2023-04-09T08:34:04;102530.94;;;12.81;72.07
64908;BME280;69061;52.236;5.188;2023-04-09T08:36:32;102529.38;;;12.92;70.79
64908;BME280;69061;52.236;5.188;2023-04-09T08:38:59;102532.28;;;12.87;69.82
64908;BME280;69061;52.236;5.188;2023-04-09T08:41:27;102525.56;;;12.93;70.65
64908;BME280;69061;52.236;5.188;2023-04-09T08:43:54;102522.91;;;13.06;70.42
64908;BME280;69061;52.236;5.188;2023-04-09T08:46:22;102525.53;;;13.18;70.12
64908;BME280;69061;52.236;5.188;2023-04-09T08:48:50;102525.28;;;13.23;68.89
64908;BME280;69061;52.236;5.188;2023-04-09T08:51:18;102522.59;;;13.36;69.01
64908;BME280;69061;52.236;5.188;2023-04-09T08:53:48;102524.88;;;13.50;67.83
64908;BME280;69061;52.236;5.188;2023-04-09T08:56:17;102518.25;;;13.59;68.01
64908;BME280;69061;52.236;5.188;2023-04-09T08:58:45;102518.41;;;13.79;67.32
64908;BME280;69061;52.236;5.188;2023-04-09T09:01:19;102525.88;;;13.89;65.68
64908;BME280;69061;52.236;5.188;2023-04-09T09:03:58;102517.00;;;13.85;64.47
64908;BME280;69061;52.236;5.188;2023-04-09T09:06:25;102515.72;;;13.95;65.03
64908;BME280;69061;52.236;5.188;2023-04-09T09:09:06;102510.03;;;13.96;65.19
64908;BME280;69061;52.236;5.188;2023-04-09T09:11:34;102518.66;;;14.06;65.16
64908;BME280;69061;52.236;5.188;2023-04-09T09:14:02;102513.41;;;14.25;63.74
64908;BME280;69061;52.236;5.188;2023-04-09T09:16:29;102512.28;;;14.10;64.03
64908;BME280;69061;52.236;5.188;2023-04-09T09:18:57;102513.25;;;14.18;64.60
64908;BME280;69061;52.236;5.188;2023-04-09T09:21:25;102512.44;;;14.34;63.90
64908;BME280;69061;52.236;5.188;2023-04-09T09:23:53;102514.28;;;14.49;63.14
64908;BME280;69061;52.236;5.188;2023-04-09T09:26:22;102513.28;;;14.54;62.60
64908;BME280;69061;52.236;5.188;2023-04-09T09:28:49;102495.81;;;14.60;62.43
64908;BME280;69061;52.236;5.188;2023-04-09T09:31:17;102496.66;;;14.80;61.82
64908;BME280;69061;52.236;5.188;2023-04-09T09:33:44;102493.69;;;14.85;61.77
64908;BME280;69061;52.236;5.188;2023-04-09T09:36:12;102500.75;;;14.93;61.46
64908;BME280;69061;52.236;5.188;2023-04-09T09:39:01;102494.00;;;14.99;60.20
64908;BME280;69061;52.236;5.188;2023-04-09T09:41:33;102497.94;;;15.06;61.37
64908;BME280;69061;52.236;5.188;2023-04-09T09:44:00;102494.91;;;15.07;59.53
64908;BME280;69061;52.236;5.188;2023-04-09T09:46:29;102495.69;;;15.08;60.12
64908;BME280;69061;52.236;5.188;2023-04-09T09:49:00;102489.75;;;15.38;60.21
64908;BME280;69061;52.236;5.188;2023-04-09T09:51:27;102489.34;;;15.59;59.44
64908;BME280;69061;52.236;5.188;2023-04-09T09:53:55;102487.38;;;15.79;58.56
64908;BME280;69061;52.236;5.188;2023-04-09T09:56:24;102487.72;;;15.97;57.86
64908;BME280;69061;52.236;5.188;2023-04-09T09:59:05;102483.34;;;16.12;56.50
64908;BME280;69061;52.236;5.188;2023-04-09T10:01:32;102486.50;;;16.17;56.46
64908;BME280;69061;52.236;5.188;2023-04-09T10:03:59;102480.00;;;16.19;56.70
64908;BME280;69061;52.236;5.188;2023-04-09T10:06:28;102475.03;;;16.21;57.84
64908;BME280;69061;52.236;5.188;2023-04-09T10:08:57;102480.34;;;16.44;56.56
64908;BME280;69061;52.236;5.188;2023-04-09T10:11:24;102476.94;;;16.47;55.20
64908;BME280;69061;52.236;5.188;2023-04-09T10:13:55;102472.78;;;16.23;53.08
64908;BME280;69061;52.236;5.188;2023-04-09T10:16:24;102466.31;;;16.27;55.17
64908;BME280;69061;52.236;5.188;2023-04-09T10:18:51;102453.78;;;16.35;55.52
64908;BME280;69061;52.236;5.188;2023-04-09T10:21:30;102444.28;;;16.41;55.46
64908;BME280;69061;52.236;5.188;2023-04-09T10:23:58;102445.94;;;16.49;55.16
64908;BME280;69061;52.236;5.188;2023-04-09T10:26:31;102445.59;;;16.55;56.02
64908;BME280;69061;52.236;5.188;2023-04-09T10:29:04;102433.41;;;16.61;55.07
64908;BME280;69061;52.236;5.188;2023-04-09T10:32:03;102433.31;;;16.54;53.94
64908;BME280;69061;52.236;5.188;2023-04-09T10:34:34;102432.09;;;16.47;54.35
64908;BME280;69061;52.236;5.188;2023-04-09T10:37:01;102433.84;;;16.66;54.55
64908;BME280;69061;52.236;5.188;2023-04-09T10:39:30;102425.16;;;16.77;54.06
64908;BME280;69061;52.236;5.188;2023-04-09T10:41:58;102425.53;;;16.75;53.53
64908;BME280;69061;52.236;5.188;2023-04-09T10:44:27;102429.41;;;16.78;53.81
64908;BME280;69061;52.236;5.188;2023-04-09T10:46:57;102428.59;;;16.74;53.23
64908;BME280;69061;52.236;5.188;2023-04-09T10:49:25;102422.78;;;16.72;54.19
64908;BME280;69061;52.236;5.188;2023-04-09T10:51:53;102415.56;;;16.76;54.34
64908;BME280;69061;52.236;5.188;2023-04-09T10:54:37;102411.84;;;16.88;53.96
64908;BME280;69061;52.236;5.188;2023-04-09T10:57:17;102415.06;;;16.97;53.44
64908;BME280;69061;52.236;5.188;2023-04-09T10:59:45;102412.06;;;17.06;53.80
64908;BME280;69061;52.236;5.188;2023-04-09T11:02:47;102406.19;;;16.96;52.71
64908;BME280;69061;52.236;5.188;2023-04-09T11:05:31;102412.22;;;16.86;53.10
64908;BME280;69061;52.236;5.188;2023-04-09T11:08:03;102409.22;;;16.91;52.59
64908;BME280;69061;52.236;5.188;2023-04-09T11:10:30;102402.13;;;16.76;52.75
64908;BME280;69061;52.236;5.188;2023-04-09T11:12:57;102403.69;;;16.77;52.74
64908;BME280;69061;52.236;5.188;2023-04-09T11:15:24;102401.75;;;16.77;52.59
64908;BME280;69061;52.236;5.188;2023-04-09T11:17:52;102405.94;;;16.75;52.73
64908;BME280;69061;52.236;5.188;2023-04-09T11:20:20;102392.38;;;16.60;52.34
64908;BME280;69061;52.236;5.188;2023-04-09T11:22:48;102396.66;;;16.35;53.11
64908;BME280;69061;52.236;5.188;2023-04-09T11:25:19;102393.56;;;16.32;53.52
64908;BME280;69061;52.236;5.188;2023-04-09T11:27:46;102387.16;;;16.41;53.96
64908;BME280;69061;52.236;5.188;2023-04-09T11:30:13;102384.47;;;16.41;53.53
64908;BME280;69061;52.236;5.188;2023-04-09T11:32:40;102385.19;;;16.38;54.21
64908;BME280;69061;52.236;5.188;2023-04-09T11:35:11;102382.19;;;16.43;53.10
64908;BME280;69061;52.236;5.188;2023-04-09T11:37:39;102384.53;;;16.48;54.19
64908;BME280;69061;52.236;5.188;2023-04-09T11:40:07;102383.09;;;16.54;53.70
64908;BME280;69061;52.236;5.188;2023-04-09T11:42:34;102390.13;;;16.66;53.26
64908;BME280;69061;52.236;5.188;2023-04-09T11:45:00;102385.97;;;16.72;53.41
64908;BME280;69061;52.236;5.188;2023-04-09T11:47:27;102376.16;;;16.87;52.38
64908;BME280;69061;52.236;5.188;2023-04-09T11:49:54;102380.66;;;16.76;51.87
64908;BME280;69061;52.236;5.188;2023-04-09T11:52:22;102374.16;;;16.77;50.22
64908;BME280;69061;52.236;5.188;2023-04-09T11:54:48;102376.59;;;16.89;50.63
64908;BME280;69061;52.236;5.188;2023-04-09T11:57:16;102369.78;;;16.95;51.42
64908;BME280;69061;52.236;5.188;2023-04-09T11:59:42;102375.25;;;17.10;51.46
64908;BME280;69061;52.236;5.188;2023-04-09T12:02:10;102373.03;;;17.19;50.92
64908;BME280;69061;52.236;5.188;2023-04-09T12:04:37;102374.88;;;17.11;49.73
64908;BME280;69061;52.236;5.188;2023-04-09T12:07:07;102365.97;;;17.00;50.69
64908;BME280;69061;52.236;5.188;2023-04-09T12:09:47;102369.72;;;16.92;50.07
64908;BME280;69061;52.236;5.188;2023-04-09T12:12:17;102362.47;;;16.96;51.02
64908;BME280;69061;52.236;5.188;2023-04-09T12:14:44;102360.97;;;16.98;50.64
64908;BME280;69061;52.236;5.188;2023-04-09T12:17:11;102361.00;;;16.68;49.97
64908;BME280;69061;52.236;5.188;2023-04-09T12:19:38;102373.97;;;16.62;50.21
64908;BME280;69061;52.236;5.188;2023-04-09T12:22:04;102360.28;;;16.71;50.71
64908;BME280;69061;52.236;5.188;2023-04-09T12:24:31;102370.91;;;16.94;51.67
64908;BME280;69061;52.236;5.188;2023-04-09T12:26:59;102373.00;;;17.15;50.18
64908;BME280;69061;52.236;5.188;2023-04-09T12:29:25;102366.88;;;17.15;49.68
64908;BME280;69061;52.236;5.188;2023-04-09T12:31:54;102364.84;;;17.05;49.49
64908;BME280;69061;52.236;5.188;2023-04-09T12:34:20;102368.34;;;17.09;49.92
64908;BME280;69061;52.236;5.188;2023-04-09T12:36:47;102369.13;;;17.09;50.27
64908;BME280;69061;52.236;5.188;2023-04-09T12:39:13;102367.19;;;17.10;48.65
64908;BME280;69061;52.236;5.188;2023-04-09T12:41:40;102362.19;;;17.08;48.46
64908;BME280;69061;52.236;5.188;2023-04-09T12:44:08;102365.53;;;16.98;48.54
64908;BME280;69061;52.236;5.188;2023-04-09T12:46:34;102364.44;;;17.03;48.59
64908;BME280;69061;52.236;5.188;2023-04-09T12:49:01;102361.03;;;17.06;48.44
64908;BME280;69061;52.236;5.188;2023-04-09T12:51:28;102366.13;;;17.18;48.20
64908;BME280;69061;52.236;5.188;2023-04-09T12:53:54;102357.44;;;17.36;48.55
64908;BME280;69061;52.236;5.188;2023-04-09T12:56:21;102366.44;;;17.61;48.56